Time;durP1;ratioP1;P1;durP2;ratioP2;P2;SDS_P1;SDS_P2;PMS_P1;PMS_P2;Temp;Humidity;BMP_temperature;BMP_pressure;BME280_temperature;BME280_humidity;BME280_pressure;Samples;Min_cycle;Max_cycle;Signal;HPM_P1;HPM_P2
2023/08/26 00:02:07;;;;;;;3.70;3.20;;;18.40;99.90;;;;;;5008168;28;20124;-58
2023/08/26 00:04:34;;;;;;;3.92;3.00;;;18.40;99.90;;;;;;5019678;28;20021;-56
2023/08/26 00:07:00;;;;;;;3.97;2.85;;;18.40;99.90;;;;;;5024926;28;20486;-57
2023/08/26 00:09:26;;;;;;;3.47;2.90;;;18.40;99.90;;;;;;5026462;28;20021;-58
2023/08/26 00:11:51;;;;;;;3.20;2.90;;;18.40;99.90;;;;;;5022489;28;20033;-59
2023/08/26 00:14:17;;;;;;;3.15;2.83;;;18.50;99.90;;;;;;5002938;28;20041;-57
2023/08/26 00:16:42;;;;;;;2.70;2.50;;;18.50;99.90;;;;;;5015936;28;20401;-58
2023/08/26 00:19:08;;;;;;;3.30;2.67;;;18.60;99.90;;;;;;5015101;28;20136;-55
2023/08/26 00:21:33;;;;;;;2.63;2.40;;;18.60;99.90;;;;;;5019521;28;20607;-56
2023/08/26 00:23:59;;;;;;;4.13;2.72;;;18.70;99.90;;;;;;5011106;28;20116;-57
2023/08/26 00:26:24;;;;;;;4.82;3.00;;;18.80;99.90;;;;;;5014539;28;20039;-58
2023/08/26 00:28:50;;;;;;;3.63;2.72;;;18.80;99.90;;;;;;5023395;28;20029;-57
2023/08/26 00:31:15;;;;;;;3.47;2.90;;;18.90;99.90;;;;;;5014560;28;20295;-57
2023/08/26 00:33:41;;;;;;;3.40;2.75;;;18.90;99.90;;;;;;5015936;28;20037;-57
2023/08/26 00:36:06;;;;;;;3.70;2.95;;;19.00;99.90;;;;;;5014010;28;20075;-57
2023/08/26 00:38:32;;;;;;;3.55;2.58;;;19.00;99.90;;;;;;5018424;28;20049;-57
2023/08/26 00:40:57;;;;;;;3.70;2.45;;;19.10;99.90;;;;;;5016618;28;20084;-57
2023/08/26 00:43:26;;;;;;;3.58;2.40;;;19.10;99.90;;;;;;5017128;28;20022;-57
2023/08/26 00:45:52;;;;;;;3.92;2.40;;;19.20;99.90;;;;;;5011850;28;20045;-57
2023/08/26 00:48:18;;;;;;;3.30;2.15;;;19.20;99.90;;;;;;5021172;28;20665;-57
2023/08/26 00:50:47;;;;;;;2.88;2.33;;;19.20;99.90;;;;;;5014680;28;20032;-56
2023/08/26 00:53:15;;;;;;;3.97;2.60;;;19.30;99.90;;;;;;5012181;28;20025;-56
2023/08/26 00:55:40;;;;;;;2.45;2.20;;;19.30;99.90;;;;;;5019065;28;20044;-57
2023/08/26 00:58:06;;;;;;;3.08;2.42;;;19.20;99.90;;;;;;5017191;28;20404;-57
2023/08/26 01:00:33;;;;;;;5.15;2.85;;;19.20;99.90;;;;;;5014641;28;20101;-57
2023/08/26 01:02:59;;;;;;;2.30;2.10;;;19.20;99.90;;;;;;5015578;28;20029;-58
2023/08/26 01:05:25;;;;;;;2.78;2.25;;;19.20;99.90;;;;;;5015305;28;20449;-56
2023/08/26 01:07:51;;;;;;;4.32;2.50;;;19.20;99.90;;;;;;5014623;28;20053;-57
2023/08/26 01:10:17;;;;;;;2.45;2.25;;;19.20;99.90;;;;;;5016941;28;20136;-56
2023/08/26 01:13:04;;;;;;;3.88;1.90;;;19.10;99.90;;;;;;5021475;28;20033;-55
2023/08/26 01:15:31;;;;;;;1.95;1.83;;;19.10;99.90;;;;;;5015113;28;20025;-58
2023/08/26 01:18:00;;;;;;;2.63;2.30;;;19.10;99.90;;;;;;5030328;28;20060;-57
2023/08/26 01:20:27;;;;;;;2.88;2.15;;;19.00;99.90;;;;;;5023129;28;20041;-57
2023/08/26 01:22:55;;;;;;;3.15;1.90;;;19.00;99.90;;;;;;5020199;28;20021;-56
2023/08/26 01:25:21;;;;;;;2.90;2.22;;;19.00;99.90;;;;;;5020115;28;20440;-57
2023/08/26 01:27:47;;;;;;;5.07;2.60;;;19.00;99.90;;;;;;5022429;28;20448;-57
2023/08/26 01:30:12;;;;;;;3.22;2.10;;;19.00;99.90;;;;;;5020087;28;20033;-56
2023/08/26 01:32:50;;;;;;;3.55;2.28;;;19.00;99.90;;;;;;5024242;28;23015;-57
2023/08/26 01:35:22;;;;;;;4.00;2.30;;;19.00;99.90;;;;;;5013431;28;20030;-59
2023/08/26 01:37:49;;;;;;;3.75;2.40;;;18.90;99.90;;;;;;5021568;28;20095;-56
2023/08/26 01:40:17;;;;;;;3.33;2.60;;;18.90;99.90;;;;;;5016316;28;20045;-57
2023/08/26 01:42:44;;;;;;;2.33;1.83;;;18.90;99.90;;;;;;5020561;28;20040;-58
2023/08/26 01:45:11;;;;;;;3.63;2.22;;;18.90;99.90;;;;;;5020123;28;20600;-57
2023/08/26 01:47:37;;;;;;;3.17;1.98;;;18.90;99.90;;;;;;5019751;28;20075;-58
2023/08/26 01:50:03;;;;;;;2.33;2.13;;;18.90;99.90;;;;;;5019775;28;20429;-57
2023/08/26 01:52:29;;;;;;;3.05;2.28;;;18.90;99.90;;;;;;5019909;28;20033;-56
2023/08/26 01:54:54;;;;;;;4.90;2.20;;;18.80;99.90;;;;;;5020135;28;20378;-57
2023/08/26 01:57:19;;;;;;;3.30;2.00;;;18.90;99.90;;;;;;5016217;28;20033;-58
2023/08/26 01:59:45;;;;;;;2.35;1.90;;;18.80;99.90;;;;;;5020380;28;20087;-57
2023/08/26 02:02:12;;;;;;;3.78;2.08;;;18.80;99.90;;;;;;5019599;28;20065;-58
2023/08/26 02:04:37;;;;;;;3.00;1.88;;;18.80;99.90;;;;;;5019307;28;20025;-57
2023/08/26 02:07:03;;;;;;;3.63;1.88;;;18.80;99.90;;;;;;5020016;28;20032;-57
2023/08/26 02:09:29;;;;;;;2.78;2.40;;;18.80;99.90;;;;;;5019445;28;20060;-57
2023/08/26 02:11:54;;;;;;;5.22;2.03;;;18.80;99.90;;;;;;5021293;28;20040;-58
2023/08/26 02:14:20;;;;;;;3.83;2.53;;;18.80;99.90;;;;;;5011313;28;20069;-58
2023/08/26 02:16:45;;;;;;;4.25;2.10;;;18.80;99.90;;;;;;5020543;28;20024;-58
2023/08/26 02:19:11;;;;;;;3.00;1.88;;;18.80;99.90;;;;;;5023282;28;20377;-56
2023/08/26 02:21:36;;;;;;;2.05;1.77;;;18.80;99.90;;;;;;5019574;28;20486;-58
2023/08/26 02:24:02;;;;;;;4.43;2.40;;;18.70;99.90;;;;;;5021173;28;20104;-59
2023/08/26 02:26:27;;;;;;;3.53;2.22;;;18.70;99.90;;;;;;5017813;28;20104;-59
2023/08/26 02:28:53;;;;;;;5.10;1.83;;;18.70;99.90;;;;;;5019512;28;20041;-61
2023/08/26 02:31:18;;;;;;;4.90;2.30;;;18.70;99.90;;;;;;5018981;28;20563;-59
2023/08/26 02:33:44;;;;;;;2.10;1.90;;;18.70;99.90;;;;;;5018947;28;20142;-60
2023/08/26 02:36:10;;;;;;;3.78;2.28;;;18.70;99.90;;;;;;5019247;28;20321;-60
2023/08/26 02:38:36;;;;;;;3.50;2.03;;;18.70;99.90;;;;;;5017099;28;20391;-59
2023/08/26 02:41:02;;;;;;;2.80;2.20;;;18.70;99.90;;;;;;5024261;28;20060;-60
2023/08/26 02:43:28;;;;;;;3.10;2.22;;;18.70;99.90;;;;;;5019695;28;20098;-60
2023/08/26 02:45:55;;;;;;;5.05;2.33;;;18.60;99.90;;;;;;5018722;28;23419;-59
2023/08/26 02:48:21;;;;;;;3.83;2.10;;;18.60;99.90;;;;;;5017794;28;20163;-60
2023/08/26 02:50:47;;;;;;;4.05;2.60;;;18.60;99.90;;;;;;5028101;28;20024;-59
2023/08/26 02:53:13;;;;;;;4.30;2.10;;;18.60;99.90;;;;;;5018803;28;20042;-59
2023/08/26 02:55:39;;;;;;;5.85;2.58;;;18.60;99.90;;;;;;5019323;28;20477;-59
2023/08/26 02:58:04;;;;;;;6.13;2.10;;;18.60;99.90;;;;;;5017136;28;20036;-59
2023/08/26 03:00:33;;;;;;;3.63;2.45;;;18.60;99.90;;;;;;5018940;28;20036;-57
2023/08/26 03:02:58;;;;;;;3.88;2.40;;;18.60;99.90;;;;;;5019041;28;20532;-57
2023/08/26 03:05:24;;;;;;;2.90;2.20;;;18.60;99.90;;;;;;5015615;28;20101;-60
2023/08/26 03:07:49;;;;;;;4.72;2.80;;;18.60;99.90;;;;;;5020316;28;20289;-59
2023/08/26 03:10:15;;;;;;;5.15;2.88;;;18.50;99.90;;;;;;5018238;28;20119;-59
2023/08/26 03:12:40;;;;;;;4.97;3.65;;;18.50;99.90;;;;;;5024226;28;20033;-59
2023/08/26 03:15:06;;;;;;;5.10;3.50;;;18.50;99.90;;;;;;5011324;28;20535;-59
2023/08/26 03:17:31;;;;;;;4.15;3.22;;;18.50;99.90;;;;;;5018540;28;20033;-59
2023/08/26 03:19:57;;;;;;;5.47;3.58;;;18.50;99.90;;;;;;5019798;28;20034;-59
2023/08/26 03:22:22;;;;;;;4.13;2.88;;;18.40;99.90;;;;;;5016445;28;20104;-60
2023/08/26 03:24:48;;;;;;;6.05;3.30;;;18.40;99.90;;;;;;5020608;28;20441;-59
2023/08/26 03:27:13;;;;;;;5.13;3.60;;;18.40;99.90;;;;;;5023900;28;20044;-58
2023/08/26 03:29:39;;;;;;;7.38;3.83;;;18.40;99.90;;;;;;5018687;28;20114;-59
2023/08/26 03:32:05;;;;;;;4.68;3.60;;;18.40;99.90;;;;;;5018561;28;20053;-59
2023/08/26 03:34:31;;;;;;;3.15;2.88;;;18.40;99.90;;;;;;5018490;28;20030;-59
2023/08/26 03:36:56;;;;;;;6.20;3.92;;;18.40;99.90;;;;;;5017598;28;20497;-60
2023/08/26 03:39:21;;;;;;;5.78;4.18;;;18.40;99.90;;;;;;5018565;28;20163;-60
2023/08/26 03:41:47;;;;;;;5.55;3.63;;;18.40;99.90;;;;;;5023476;28;20029;-60
2023/08/26 03:44:12;;;;;;;6.18;4.32;;;18.40;99.90;;;;;;5018644;28;20099;-59
2023/08/26 03:46:38;;;;;;;5.32;4.07;;;18.40;99.90;;;;;;5022800;28;20336;-59
2023/08/26 03:49:03;;;;;;;4.28;3.70;;;18.40;99.90;;;;;;5018494;28;20497;-59
2023/08/26 03:51:29;;;;;;;5.03;3.97;;;18.40;99.90;;;;;;5020787;28;20025;-59
2023/08/26 03:53:55;;;;;;;4.43;3.78;;;18.40;99.90;;;;;;5020733;28;20026;-59
2023/08/26 03:56:20;;;;;;;4.93;3.60;;;18.40;99.90;;;;;;5022749;28;20028;-59
2023/08/26 03:58:46;;;;;;;4.40;3.47;;;18.40;99.90;;;;;;5019770;28;20030;-60
2023/08/26 04:01:11;;;;;;;7.20;3.50;;;18.40;99.90;;;;;;5022762;28;20060;-60
2023/08/26 04:03:37;;;;;;;6.70;3.67;;;18.40;99.90;;;;;;5025084;28;20167;-60
2023/08/26 04:06:04;;;;;;;5.38;3.42;;;18.40;99.90;;;;;;5022983;28;20524;-60
2023/08/26 04:08:31;;;;;;;4.68;3.50;;;18.40;99.90;;;;;;5024452;28;20076;-59
2023/08/26 04:10:57;;;;;;;4.75;3.40;;;18.50;99.90;;;;;;5021822;28;20083;-59
2023/08/26 04:13:25;;;;;;;4.38;3.67;;;18.50;99.90;;;;;;5023808;28;20041;-59
2023/08/26 04:15:58;;;;;;;5.22;3.05;;;18.50;99.90;;;;;;5014461;28;20488;-59
2023/08/26 04:18:24;;;;;;;6.00;3.42;;;18.50;99.90;;;;;;5018324;28;20028;-57
2023/08/26 04:20:50;;;;;;;5.05;3.28;;;18.60;99.90;;;;;;5026819;28;20024;-59
2023/08/26 04:23:16;;;;;;;4.38;3.50;;;18.60;99.90;;;;;;5026941;28;20033;-59
2023/08/26 04:25:42;;;;;;;5.10;2.80;;;18.60;99.90;;;;;;5021833;28;20029;-59
2023/08/26 04:28:08;;;;;;;5.35;3.42;;;18.60;99.90;;;;;;5025521;28;20032;-59
2023/08/26 04:30:36;;;;;;;4.05;3.05;;;18.60;99.90;;;;;;5025408;28;20037;-59
2023/08/26 04:33:01;;;;;;;4.35;2.90;;;18.60;99.90;;;;;;5021795;28;20813;-59
2023/08/26 04:35:27;;;;;;;4.20;3.05;;;18.60;99.90;;;;;;5022936;28;20113;-59
2023/08/26 04:37:53;;;;;;;5.20;2.50;;;18.60;99.90;;;;;;5021341;28;20305;-59
2023/08/26 04:40:18;;;;;;;3.05;2.75;;;18.50;99.90;;;;;;5023521;28;20026;-59
2023/08/26 04:42:44;;;;;;;6.07;3.00;;;18.60;99.90;;;;;;5023401;28;20030;-59
2023/08/26 04:45:12;;;;;;;3.72;2.70;;;18.60;99.90;;;;;;5021188;28;20095;-58
2023/08/26 04:47:38;;;;;;;4.70;2.92;;;18.60;99.90;;;;;;5025173;28;20060;-59
2023/08/26 04:50:04;;;;;;;6.72;3.20;;;18.60;99.90;;;;;;5022839;28;20053;-59
2023/08/26 04:52:29;;;;;;;3.92;2.70;;;18.60;99.90;;;;;;5022307;28;20029;-59
2023/08/26 04:54:55;;;;;;;4.00;2.97;;;18.60;99.90;;;;;;5021386;28;20029;-60
2023/08/26 04:57:20;;;;;;;3.72;3.00;;;18.60;99.90;;;;;;5019072;28;20038;-60
2023/08/26 04:59:46;;;;;;;3.63;2.90;;;18.70;99.90;;;;;;5023310;28;20020;-59
2023/08/26 05:02:11;;;;;;;6.32;3.40;;;18.70;99.90;;;;;;5019102;28;20456;-59
2023/08/26 05:04:37;;;;;;;3.40;2.75;;;18.70;99.90;;;;;;5026230;28;20025;-59
2023/08/26 05:07:03;;;;;;;3.08;2.78;;;18.70;99.90;;;;;;5016660;28;20047;-60
2023/08/26 05:09:29;;;;;;;3.50;2.58;;;18.70;99.90;;;;;;5018142;28;20075;-59
2023/08/26 05:11:58;;;;;;;3.22;2.75;;;18.70;99.90;;;;;;5021490;28;20477;-60
2023/08/26 05:14:24;;;;;;;3.28;2.95;;;18.80;99.90;;;;;;5014841;28;20049;-59
2023/08/26 05:16:50;;;;;;;4.95;3.13;;;18.80;99.90;;;;;;5019513;28;20116;-60
2023/08/26 05:19:15;;;;;;;6.22;3.10;;;18.90;99.90;;;;;;5012238;28;20183;-59
2023/08/26 05:21:41;;;;;;;4.75;3.42;;;18.80;99.90;;;;;;5023824;28;20033;-59
2023/08/26 05:24:06;;;;;;;4.30;2.90;;;18.90;99.90;;;;;;5015475;28;20044;-59
2023/08/26 05:26:32;;;;;;;3.13;2.83;;;18.90;99.90;;;;;;5016695;28;20030;-60
2023/08/26 05:28:58;;;;;;;4.28;3.08;;;18.90;99.90;;;;;;5020505;28;20060;-59
2023/08/26 05:31:23;;;;;;;3.42;2.97;;;19.00;99.90;;;;;;5017675;28;20080;-59
2023/08/26 05:33:49;;;;;;;3.42;2.75;;;19.00;99.90;;;;;;5018889;28;20029;-59
2023/08/26 05:36:14;;;;;;;4.18;2.80;;;19.00;99.90;;;;;;5022907;28;20029;-59
2023/08/26 05:38:40;;;;;;;5.10;3.35;;;19.10;99.90;;;;;;5011303;28;20030;-60
2023/08/26 05:41:06;;;;;;;5.63;3.33;;;19.10;99.90;;;;;;5020936;28;20033;-59
2023/08/26 05:43:31;;;;;;;5.13;2.63;;;19.20;99.90;;;;;;5019693;28;20036;-60
2023/08/26 05:45:57;;;;;;;6.68;3.15;;;19.20;99.90;;;;;;5017713;28;20029;-59
2023/08/26 05:48:23;;;;;;;5.22;3.47;;;19.20;99.90;;;;;;5018056;28;20056;-59
2023/08/26 05:50:48;;;;;;;7.35;3.17;;;19.20;99.90;;;;;;5023699;28;20060;-60
2023/08/26 05:53:14;;;;;;;7.78;3.00;;;19.20;99.90;;;;;;5015969;28;21919;-59
2023/08/26 05:55:43;;;;;;;4.03;3.35;;;19.20;99.90;;;;;;5016547;28;20021;-60
2023/08/26 05:58:09;;;;;;;3.33;2.72;;;19.30;99.90;;;;;;5020581;28;20401;-59
2023/08/26 06:00:34;;;;;;;4.18;2.90;;;19.30;99.90;;;;;;5019745;28;20025;-60
2023/08/26 06:03:00;;;;;;;4.35;3.25;;;19.40;99.90;;;;;;5017496;28;20650;-59
2023/08/26 06:05:26;;;;;;;4.88;2.85;;;19.40;99.90;;;;;;5017219;28;20033;-59
2023/08/26 06:07:51;;;;;;;4.18;3.67;;;19.50;99.90;;;;;;5018432;28;20497;-60
2023/08/26 06:10:17;;;;;;;3.33;2.88;;;19.50;99.90;;;;;;5021898;28;20017;-59
2023/08/26 06:12:43;;;;;;;3.90;3.22;;;19.50;99.90;;;;;;5022247;28;20155;-59
2023/08/26 06:15:09;;;;;;;3.60;2.83;;;19.60;99.90;;;;;;5011479;28;20120;-60
2023/08/26 06:17:35;;;;;;;5.60;3.38;;;19.60;99.90;;;;;;5015131;28;20022;-60
2023/08/26 06:20:03;;;;;;;5.63;3.35;;;19.70;99.90;;;;;;5020469;28;20025;-59
2023/08/26 06:22:29;;;;;;;5.55;3.40;;;19.70;99.90;;;;;;5014920;28;20021;-59
2023/08/26 06:24:55;;;;;;;4.20;2.95;;;19.80;99.90;;;;;;5015240;28;20559;-56
2023/08/26 06:27:20;;;;;;;6.38;3.40;;;19.90;99.90;;;;;;5018811;28;20028;-58
2023/08/26 06:29:53;;;;;;;4.97;3.50;;;20.00;99.90;;;;;;5010911;28;20034;-58
2023/08/26 06:32:19;;;;;;;4.30;3.58;;;20.00;99.90;;;;;;5013851;28;21051;-58
2023/08/26 06:34:46;;;;;;;5.32;3.42;;;20.00;99.90;;;;;;5011277;28;20057;-58
2023/08/26 06:37:13;;;;;;;4.82;2.88;;;20.10;99.90;;;;;;5013434;28;20033;-57
2023/08/26 06:39:39;;;;;;;4.15;3.03;;;20.10;99.90;;;;;;5020858;28;20036;-58
2023/08/26 06:42:04;;;;;;;4.88;2.92;;;20.10;99.90;;;;;;5013119;28;20034;-58
2023/08/26 06:44:30;;;;;;;5.05;2.90;;;20.20;99.90;;;;;;5018588;28;20025;-58
2023/08/26 06:46:55;;;;;;;3.90;3.42;;;20.20;99.90;;;;;;5015879;28;20421;-58
2023/08/26 06:49:21;;;;;;;4.30;3.60;;;20.20;99.90;;;;;;5022600;28;20026;-57
2023/08/26 06:51:46;;;;;;;5.05;3.38;;;20.30;99.90;;;;;;5015684;28;20056;-57
2023/08/26 06:54:12;;;;;;;6.13;3.70;;;20.40;99.90;;;;;;5018769;28;20061;-57
2023/08/26 06:56:37;;;;;;;5.50;3.42;;;20.50;99.90;;;;;;5015842;28;20398;-57
2023/08/26 06:59:03;;;;;;;4.97;3.40;;;20.60;99.90;;;;;;5023913;28;20273;-57
2023/08/26 07:01:29;;;;;;;3.25;2.92;;;20.80;99.90;;;;;;5010365;28;20114;-57
2023/08/26 07:04:09;;;;;;;6.15;3.33;;;20.90;99.90;;;;;;5018577;28;20089;-57
2023/08/26 07:06:36;;;;;;;5.47;3.60;;;21.00;99.90;;;;;;5019122;28;20489;-57
2023/08/26 07:09:01;;;;;;;3.17;2.88;;;21.10;99.90;;;;;;5022016;28;20063;-57
2023/08/26 07:11:27;;;;;;;4.82;3.55;;;21.10;99.90;;;;;;5016120;28;20069;-57
2023/08/26 07:13:53;;;;;;;4.38;3.83;;;21.10;99.90;;;;;;5017228;28;20033;-57
2023/08/26 07:16:18;;;;;;;6.68;3.42;;;21.10;99.90;;;;;;5017009;28;20067;-55
2023/08/26 07:18:44;;;;;;;5.03;3.22;;;21.10;99.90;;;;;;5016764;28;20049;-57
2023/08/26 07:21:09;;;;;;;3.53;3.15;;;21.10;99.90;;;;;;5016470;28;20060;-57
2023/08/26 07:23:35;;;;;;;4.93;3.55;;;21.00;99.90;;;;;;5019488;28;20025;-58
2023/08/26 07:26:01;;;;;;;5.10;4.03;;;21.00;99.90;;;;;;5021305;28;20397;-56
2023/08/26 07:28:26;;;;;;;5.38;3.92;;;20.90;99.90;;;;;;5020848;28;20056;-57
2023/08/26 07:30:53;;;;;;;5.07;3.60;;;20.90;99.90;;;;;;5018191;28;20073;-59
2023/08/26 07:33:18;;;;;;;3.80;3.47;;;20.90;99.90;;;;;;5023088;28;20037;-58
2023/08/26 07:35:44;;;;;;;7.13;3.85;;;20.80;99.90;;;;;;5019821;28;20560;-58
2023/08/26 07:38:09;;;;;;;4.38;3.92;;;20.80;99.90;;;;;;5022656;28;20065;-57
2023/08/26 07:40:35;;;;;;;11.00;4.22;;;20.90;99.90;;;;;;5026944;28;20044;-57
2023/08/26 07:43:00;;;;;;;5.72;3.75;;;21.00;99.90;;;;;;5018614;28;20034;-57
2023/08/26 07:45:26;;;;;;;7.07;3.45;;;21.10;99.90;;;;;;5014186;28;20045;-58
2023/08/26 07:47:52;;;;;;;3.40;3.08;;;21.30;99.90;;;;;;5020355;28;20433;-58
2023/08/26 07:50:17;;;;;;;3.50;2.90;;;21.50;99.90;;;;;;5017579;28;20107;-59
2023/08/26 07:52:44;;;;;;;4.68;3.17;;;21.60;99.90;;;;;;5023228;28;20129;-57
2023/08/26 07:55:10;;;;;;;6.18;3.30;;;21.80;99.90;;;;;;5018983;28;20064;-57
2023/08/26 07:57:35;;;;;;;6.20;3.67;;;21.90;99.90;;;;;;5016927;28;20060;-56
2023/08/26 08:00:02;;;;;;;4.70;3.38;;;22.00;99.90;;;;;;5021255;28;20029;-54
2023/08/26 08:02:28;;;;;;;5.95;3.90;;;22.10;99.90;;;;;;5015449;28;20018;-58
2023/08/26 08:04:54;;;;;;;4.88;3.63;;;22.20;99.90;;;;;;5020817;28;20649;-58
2023/08/26 08:07:19;;;;;;;5.55;3.22;;;22.30;99.90;;;;;;5018320;28;20025;-58
2023/08/26 08:09:45;;;;;;;6.13;3.17;;;22.40;99.90;;;;;;5022840;28;20033;-55
2023/08/26 08:12:11;;;;;;;5.30;3.22;;;22.40;99.90;;;;;;5020598;28;20404;-57
2023/08/26 08:14:36;;;;;;;4.22;3.83;;;22.40;99.90;;;;;;5015342;28;20068;-58
2023/08/26 08:17:03;;;;;;;4.30;3.53;;;22.30;99.90;;;;;;5021854;28;20032;-58
2023/08/26 08:19:28;;;;;;;8.30;3.80;;;22.40;99.90;;;;;;5020581;28;20018;-59
2023/08/26 08:21:54;;;;;;;6.63;4.22;;;22.40;99.90;;;;;;5023119;28;20027;-56
2023/08/26 08:24:19;;;;;;;4.45;3.53;;;22.50;99.90;;;;;;5018581;28;20060;-56
2023/08/26 08:26:45;;;;;;;6.20;3.95;;;22.60;99.90;;;;;;5016275;28;20642;-55
2023/08/26 08:29:10;;;;;;;5.90;4.30;;;22.80;99.90;;;;;;5022876;28;20704;-54
2023/08/26 08:31:36;;;;;;;5.05;4.10;;;22.80;99.90;;;;;;5018584;28;20050;-56
2023/08/26 08:34:03;;;;;;;4.78;4.28;;;23.00;99.90;;;;;;5018353;28;20368;-55
2023/08/26 08:36:29;;;;;;;5.32;4.20;;;23.10;99.90;;;;;;5017655;28;20331;-56
2023/08/26 08:38:55;;;;;;;5.35;4.43;;;23.20;99.90;;;;;;5026934;28;20025;-56
2023/08/26 08:41:20;;;;;;;4.35;3.95;;;23.30;99.90;;;;;;5018605;28;20060;-56
2023/08/26 08:43:48;;;;;;;4.05;3.55;;;23.20;99.90;;;;;;5016089;28;20036;-56
2023/08/26 08:46:15;;;;;;;4.30;3.67;;;23.20;99.90;;;;;;5022226;28;20021;-56
2023/08/26 08:48:41;;;;;;;4.55;3.75;;;23.20;99.90;;;;;;5019444;28;20033;-56
2023/08/26 08:51:08;;;;;;;5.43;4.35;;;23.10;99.90;;;;;;5017876;28;20029;-56
2023/08/26 08:53:40;;;;;;;5.55;4.00;;;23.10;99.90;;;;;;5021639;28;20599;-56
2023/08/26 08:56:06;;;;;;;5.85;4.05;;;23.00;99.90;;;;;;5019858;28;20040;-56
2023/08/26 08:58:33;;;;;;;5.80;3.72;;;23.00;99.90;;;;;;5022068;28;20029;-56
2023/08/26 09:01:00;;;;;;;5.05;4.10;;;23.00;99.90;;;;;;5020116;28;20215;-56
2023/08/26 09:03:26;;;;;;;6.07;3.45;;;23.00;99.90;;;;;;5018947;28;20022;-56
2023/08/26 09:05:52;;;;;;;4.28;3.83;;;23.10;99.90;;;;;;5020397;28;20028;-57
2023/08/26 09:08:19;;;;;;;6.65;4.32;;;23.20;99.90;;;;;;5016571;28;20030;-57
2023/08/26 09:10:47;;;;;;;5.03;3.67;;;23.20;99.90;;;;;;5021906;28;20047;-56
2023/08/26 09:13:12;;;;;;;5.75;3.88;;;23.30;99.90;;;;;;5019501;28;20029;-58
2023/08/26 09:15:38;;;;;;;7.65;3.65;;;23.60;99.90;;;;;;5019289;28;20028;-57
2023/08/26 09:18:11;;;;;;;6.55;3.35;;;24.00;99.90;;;;;;5013017;28;20044;-57
2023/08/26 09:20:40;;;;;;;3.25;2.95;;;24.60;99.90;;;;;;5012745;28;20101;-57
2023/08/26 09:23:08;;;;;;;4.18;3.38;;;25.20;99.90;;;;;;5015252;28;20025;-58
2023/08/26 09:25:35;;;;;;;4.07;3.67;;;25.70;99.90;;;;;;5018315;28;20024;-57
2023/08/26 09:28:00;;;;;;;4.82;3.25;;;25.90;97.20;;;;;;5013124;28;20164;-58
2023/08/26 09:30:26;;;;;;;3.22;2.90;;;26.00;96.70;;;;;;5021419;28;20104;-57
2023/08/26 09:32:53;;;;;;;3.35;2.95;;;26.00;96.30;;;;;;5017513;28;20501;-57
2023/08/26 09:35:19;;;;;;;3.42;3.13;;;26.00;96.00;;;;;;5021245;28;20026;-57
2023/08/26 09:37:47;;;;;;;3.65;2.90;;;26.10;95.50;;;;;;5019226;28;20033;-57
2023/08/26 09:40:14;;;;;;;3.60;2.88;;;26.10;95.30;;;;;;5020324;28;20026;-58
2023/08/26 09:42:40;;;;;;;4.07;2.95;;;26.30;95.20;;;;;;5023092;28;20032;-57
2023/08/26 09:45:07;;;;;;;4.13;3.03;;;26.50;94.20;;;;;;5025130;28;20101;-58
2023/08/26 09:47:37;;;;;;;3.65;2.83;;;26.60;93.10;;;;;;5007530;28;20045;-58
2023/08/26 09:50:04;;;;;;;4.13;3.08;;;26.70;91.70;;;;;;5009568;28;20032;-57
2023/08/26 09:52:30;;;;;;;4.15;3.00;;;26.50;91.10;;;;;;5021451;28;20626;-58
2023/08/26 09:54:56;;;;;;;3.58;2.95;;;26.30;90.80;;;;;;5019294;28;20101;-57
2023/08/26 09:57:22;;;;;;;3.58;3.00;;;26.00;91.30;;;;;;5024615;28;20107;-59
2023/08/26 09:59:47;;;;;;;3.55;2.70;;;25.80;91.00;;;;;;5021406;28;20033;-58
2023/08/26 10:02:21;;;;;;;3.50;2.38;;;25.70;91.30;;;;;;5023605;28;20026;-58
2023/08/26 10:04:54;;;;;;;3.85;2.25;;;25.80;91.00;;;;;;5010913;28;20025;-58
2023/08/26 10:07:21;;;;;;;2.15;2.03;;;25.80;91.10;;;;;;5008905;28;20104;-59
2023/08/26 10:09:57;;;;;;;4.13;3.08;;;25.80;90.80;;;;;;5004786;28;20022;-58
2023/08/26 10:12:29;;;;;;;3.08;2.40;;;25.80;90.00;;;;;;5005884;28;20122;-57
2023/08/26 10:15:00;;;;;;;2.20;2.00;;;25.70;89.70;;;;;;5009064;28;20482;-58
2023/08/26 10:17:28;;;;;;;3.83;2.47;;;25.50;89.40;;;;;;5016053;28;20113;-59
2023/08/26 10:19:55;;;;;;;4.43;2.22;;;25.50;87.20;;;;;;5015925;28;20017;-58
2023/08/26 10:22:21;;;;;;;2.50;2.30;;;25.60;89.40;;;;;;5015818;28;20025;-58
2023/08/26 10:24:46;;;;;;;2.40;2.10;;;25.80;89.40;;;;;;5011121;28;20030;-58
2023/08/26 10:27:12;;;;;;;4.13;2.65;;;26.00;87.80;;;;;;5016888;28;20024;-59
2023/08/26 10:29:38;;;;;;;2.97;2.67;;;26.10;86.20;;;;;;5013712;28;20105;-59
2023/08/26 10:32:17;;;;;;;3.30;3.00;;;26.30;85.30;;;;;;5017535;28;20126;-59
2023/08/26 10:34:59;;;;;;;3.58;2.60;;;26.50;82.60;;;;;;5018182;28;20401;-59
2023/08/26 10:37:33;;;;;;;4.38;3.15;;;26.50;78.80;;;;;;5011854;28;20112;-59
2023/08/26 10:40:10;;;;;;;4.75;4.20;;;26.60;80.70;;;;;;5014447;28;20747;-59
2023/08/26 10:42:58;;;;;;;4.43;3.75;;;26.70;78.50;;;;;;5023128;28;20026;-59
2023/08/26 10:45:24;;;;;;;3.95;3.40;;;26.70;81.00;;;;;;5012697;28;20041;-59
2023/08/26 10:47:54;;;;;;;5.07;3.83;;;26.80;80.70;;;;;;5024497;28;20392;-59
2023/08/26 10:50:27;;;;;;;4.75;3.53;;;27.00;80.10;;;;;;5006806;28;20489;-59
2023/08/26 10:52:59;;;;;;;5.75;4.00;;;27.10;78.70;;;;;;5015384;28;20033;-59
2023/08/26 10:55:26;;;;;;;4.95;3.83;;;27.20;78.20;;;;;;5015121;28;20030;-58
2023/08/26 10:58:08;;;;;;;6.03;4.25;;;27.20;78.00;;;;;;5024992;28;20032;-58
2023/08/26 11:00:35;;;;;;;4.63;4.22;;;27.10;73.00;;;;;;5014387;28;20067;-59
2023/08/26 11:03:03;;;;;;;5.30;4.18;;;26.90;76.20;;;;;;5012429;28;20034;-58
2023/08/26 11:05:30;;;;;;;7.63;4.07;;;26.90;76.10;;;;;;5021199;28;20029;-58
2023/08/26 11:07:56;;;;;;;4.53;4.13;;;26.80;75.30;;;;;;5019627;28;20079;-57
2023/08/26 11:10:33;;;;;;;4.90;3.83;;;26.80;75.30;;;;;;5007104;28;20442;-58
2023/08/26 11:12:59;;;;;;;6.80;4.40;;;26.80;73.90;;;;;;5017613;28;20446;-58
2023/08/26 11:15:27;;;;;;;4.80;4.40;;;26.70;74.30;;;;;;5009270;28;20540;-59
2023/08/26 11:17:54;;;;;;;7.45;4.35;;;26.60;73.50;;;;;;5011689;28;20423;-59
2023/08/26 11:20:20;;;;;;;5.78;4.95;;;26.70;73.10;;;;;;5013318;28;20036;-58
2023/08/26 11:22:46;;;;;;;5.72;4.78;;;26.70;72.70;;;;;;5018515;28;20563;-58
2023/08/26 11:25:16;;;;;;;6.85;4.70;;;26.70;72.90;;;;;;5018967;28;20037;-58
2023/08/26 11:27:41;;;;;;;5.15;4.57;;;26.80;72.30;;;;;;5014046;28;20106;-58
2023/08/26 11:30:12;;;;;;;9.48;5.22;;;26.90;72.50;;;;;;5015121;28;20442;-58
2023/08/26 11:32:39;;;;;;;5.90;4.50;;;26.90;71.50;;;;;;5014834;28;20065;-58
2023/08/26 11:35:07;;;;;;;5.95;4.82;;;26.80;70.70;;;;;;5015972;28;20096;-58
2023/08/26 11:37:40;;;;;;;6.85;4.85;;;26.70;71.10;;;;;;5017088;28;20030;-59
2023/08/26 11:40:06;;;;;;;6.40;4.70;;;26.70;69.80;;;;;;5015713;28;20033;-58
2023/08/26 11:42:32;;;;;;;7.97;4.55;;;26.70;69.60;;;;;;5021816;28;20029;-59
2023/08/26 11:44:57;;;;;;;6.88;4.38;;;26.80;68.30;;;;;;5019671;28;20513;-60
2023/08/26 11:47:24;;;;;;;5.93;4.38;;;26.90;66.30;;;;;;5020227;28;20040;-56
2023/08/26 11:49:56;;;;;;;6.15;4.57;;;26.90;66.70;;;;;;5012576;28;20065;-58
2023/08/26 11:52:35;;;;;;;5.03;4.22;;;26.90;66.00;;;;;;5012636;28;20497;-58
2023/08/26 11:55:03;;;;;;;5.43;4.15;;;27.00;64.60;;;;;;5012476;28;20102;-59
2023/08/26 11:57:35;;;;;;;5.10;4.07;;;27.00;64.60;;;;;;5016661;28;20585;-59
2023/08/26 12:00:11;;;;;;;6.35;3.67;;;27.10;64.80;;;;;;5017089;28;20030;-59
2023/08/26 12:02:36;;;;;;;4.78;3.40;;;27.10;62.00;;;;;;5023462;28;20033;-58
2023/08/26 12:05:02;;;;;;;5.05;3.40;;;27.10;62.80;;;;;;5016494;28;20103;-59
2023/08/26 12:07:31;;;;;;;5.53;3.70;;;27.10;62.80;;;;;;5019769;28;20037;-58
2023/08/26 12:10:08;;;;;;;5.80;3.75;;;27.10;63.00;;;;;;5019269;28;20378;-58
2023/08/26 12:12:35;;;;;;;4.28;3.88;;;27.00;62.70;;;;;;5010014;28;20029;-58
2023/08/26 12:15:12;;;;;;;5.05;4.25;;;27.00;62.00;;;;;;5012095;28;20026;-58
2023/08/26 12:17:45;;;;;;;4.72;3.75;;;27.00;62.20;;;;;;5017211;28;20088;-58
2023/08/26 12:20:25;;;;;;;3.92;3.50;;;27.00;62.20;;;;;;5012710;28;20025;-59
2023/08/26 12:22:55;;;;;;;5.53;4.45;;;27.20;60.00;;;;;;5014017;28;20108;-57
2023/08/26 12:25:32;;;;;;;5.82;4.13;;;27.40;60.60;;;;;;5018776;28;20026;-58
2023/08/26 12:28:13;;;;;;;6.22;4.40;;;27.50;61.20;;;;;;5008549;28;20022;-58
2023/08/26 12:30:41;;;;;;;7.55;3.83;;;27.60;59.20;;;;;;5013764;28;20522;-58
2023/08/26 12:33:07;;;;;;;5.43;3.70;;;27.60;60.90;;;;;;5020917;28;20583;-58
2023/08/26 12:35:34;;;;;;;5.38;3.45;;;27.60;60.50;;;;;;5013609;28;20036;-59
2023/08/26 12:38:02;;;;;;;5.05;3.17;;;27.50;60.00;;;;;;5011944;28;20032;-58
2023/08/26 12:40:30;;;;;;;3.42;3.13;;;27.50;60.30;;;;;;5013132;28;20509;-58
2023/08/26 12:42:55;;;;;;;3.50;3.00;;;27.50;60.00;;;;;;5020568;28;20035;-57
2023/08/26 12:45:21;;;;;;;4.30;3.20;;;27.40;59.40;;;;;;5019575;28;20033;-59
2023/08/26 12:47:47;;;;;;;4.13;3.10;;;27.40;58.70;;;;;;5020897;28;20089;-58